Time;durP1;ratioP1;P1;durP2;ratioP2;P2;SDS_P1;SDS_P2;PMS_P1;PMS_P2;Temp;Humidity;BMP_temperature;BMP_pressure;BME280_temperature;BME280_humidity;BME280_pressure;Samples;Min_cycle;Max_cycle;Signal;HPM_P1;HPM_P2
2022/10/20 00:02:25;;;;;;;9.27;4.55;;;14.90;99.90;;;;;;10102102;28;20055;-62
2022/10/20 00:07:15;;;;;;;7.10;4.95;;;14.90;99.90;;;;;;10102855;28;20029;-62
2022/10/20 00:12:06;;;;;;;8.63;4.90;;;15.00;99.90;;;;;;10103037;28;20021;-62
2022/10/20 00:17:00;;;;;;;9.90;4.57;;;14.90;99.90;;;;;;10102043;28;20041;-62
2022/10/20 00:21:50;;;;;;;9.32;4.80;;;14.90;99.90;;;;;;10110196;28;20292;-62
2022/10/20 00:26:41;;;;;;;8.27;4.78;;;14.80;99.90;;;;;;10101955;28;20321;-63
2022/10/20 00:31:32;;;;;;;9.50;4.93;;;14.80;99.90;;;;;;10101889;28;20028;-62
2022/10/20 00:36:23;;;;;;;9.88;5.88;;;14.80;99.90;;;;;;10102086;28;20137;-63
2022/10/20 00:41:15;;;;;;;10.27;5.07;;;14.80;99.90;;;;;;10101770;28;20241;-63
2022/10/20 00:46:06;;;;;;;11.02;5.63;;;14.90;99.90;;;;;;10102831;28;20113;-61
2022/10/20 00:50:56;;;;;;;9.15;5.40;;;14.80;99.90;;;;;;10101487;28;20107;-62
2022/10/20 00:55:50;;;;;;;11.73;6.35;;;14.80;99.90;;;;;;10101062;28;20186;-63
2022/10/20 01:00:46;;;;;;;11.13;6.60;;;14.90;99.90;;;;;;10101385;28;20103;-63
2022/10/20 01:05:36;;;;;;;9.52;5.10;;;14.90;99.90;;;;;;10099820;28;20272;-62
2022/10/20 01:10:33;;;;;;;12.75;5.60;;;14.80;99.90;;;;;;10101045;28;20031;-62
2022/10/20 01:15:29;;;;;;;11.75;6.40;;;14.80;99.90;;;;;;10099734;28;20499;-63
2022/10/20 01:20:42;;;;;;;12.80;5.75;;;14.70;99.90;;;;;;10097938;28;20044;-61
2022/10/20 01:25:44;;;;;;;11.00;6.03;;;14.60;99.90;;;;;;10091158;28;20021;-64
2022/10/20 01:30:43;;;;;;;12.45;5.45;;;14.60;99.90;;;;;;10101524;28;20036;-63
2022/10/20 01:35:37;;;;;;;10.23;6.55;;;14.50;99.90;;;;;;10100080;28;20519;-63
2022/10/20 01:40:37;;;;;;;11.40;5.93;;;14.70;99.90;;;;;;10089144;28;20507;-62
2022/10/20 01:45:31;;;;;;;10.27;5.70;;;14.70;99.90;;;;;;10098878;28;20156;-62
2022/10/20 01:50:23;;;;;;;11.10;6.60;;;14.70;99.90;;;;;;10099589;28;20021;-62
2022/10/20 01:55:17;;;;;;;13.07;6.45;;;14.70;99.90;;;;;;10098514;28;20128;-62
2022/10/20 02:00:13;;;;;;;10.95;6.15;;;14.70;99.90;;;;;;10099377;28;20084;-62
2022/10/20 02:05:37;;;;;;;10.50;5.72;;;14.60;99.90;;;;;;10113556;28;20082;-61
2022/10/20 02:10:36;;;;;;;12.80;6.50;;;14.60;99.90;;;;;;10098797;28;20132;-61
2022/10/20 02:15:29;;;;;;;11.95;6.60;;;14.60;99.90;;;;;;10097545;28;20534;-62
2022/10/20 02:20:20;;;;;;;11.63;6.68;;;14.60;99.90;;;;;;10098713;28;20049;-61
2022/10/20 02:25:12;;;;;;;11.88;6.85;;;14.60;99.90;;;;;;10097719;28;20033;-63
2022/10/20 02:30:10;;;;;;;15.30;6.60;;;14.60;99.90;;;;;;10104617;28;20021;-61
2022/10/20 02:35:04;;;;;;;15.88;7.25;;;14.60;99.90;;;;;;10098161;28;20115;-61
2022/10/20 02:39:54;;;;;;;14.57;7.68;;;14.60;99.90;;;;;;10098654;28;20036;-61
2022/10/20 02:44:45;;;;;;;14.10;7.55;;;14.30;99.90;;;;;;10096670;28;20044;-61
2022/10/20 02:49:36;;;;;;;15.68;7.00;;;14.40;99.90;;;;;;10097782;28;20043;-62
2022/10/20 02:54:27;;;;;;;16.10;7.70;;;14.50;99.90;;;;;;10095917;28;20051;-61
2022/10/20 02:59:18;;;;;;;15.60;7.40;;;14.40;99.90;;;;;;10083695;28;20047;-64
2022/10/20 03:04:08;;;;;;;13.35;6.68;;;14.60;99.90;;;;;;10096048;28;20021;-66
2022/10/20 03:09:00;;;;;;;15.18;7.82;;;14.50;99.90;;;;;;10088427;28;20491;-62
2022/10/20 03:13:50;;;;;;;12.48;7.93;;;14.50;99.90;;;;;;10093685;28;20112;-62
2022/10/20 03:18:41;;;;;;;14.45;7.20;;;14.40;99.90;;;;;;10087945;28;20578;-61
2022/10/20 03:23:31;;;;;;;15.82;7.43;;;14.40;99.90;;;;;;10097103;28;20040;-62
2022/10/20 03:28:22;;;;;;;18.05;8.48;;;14.50;99.90;;;;;;10105160;28;20097;-63
2022/10/20 03:33:13;;;;;;;17.63;8.95;;;14.40;99.90;;;;;;10104463;28;20025;-63
2022/10/20 03:38:03;;;;;;;16.50;9.43;;;14.60;99.90;;;;;;10104049;28;20090;-64
2022/10/20 03:42:54;;;;;;;17.65;8.80;;;14.60;99.90;;;;;;10104659;28;20032;-62
2022/10/20 03:47:44;;;;;;;17.80;8.80;;;14.60;99.90;;;;;;10104491;28;20025;-62
2022/10/20 03:52:35;;;;;;;15.88;8.18;;;14.60;99.90;;;;;;10103963;28;20465;-62
2022/10/20 03:57:26;;;;;;;15.55;8.50;;;14.60;99.90;;;;;;10103111;28;20043;-64
2022/10/20 04:02:33;;;;;;;16.98;8.93;;;14.60;99.90;;;;;;10104532;28;20116;-63
2022/10/20 04:07:24;;;;;;;17.27;8.73;;;14.50;99.90;;;;;;10098447;28;20523;-61
2022/10/20 04:12:17;;;;;;;18.50;9.07;;;14.50;99.90;;;;;;10102913;28;20062;-62
2022/10/20 04:17:08;;;;;;;18.63;9.07;;;14.50;99.90;;;;;;10102468;28;20075;-61
2022/10/20 04:21:59;;;;;;;20.58;9.30;;;14.50;99.90;;;;;;10104064;28;20037;-61
2022/10/20 04:26:50;;;;;;;15.50;8.13;;;14.50;99.90;;;;;;10102548;28;20035;-63
2022/10/20 04:31:40;;;;;;;21.23;9.48;;;14.50;99.90;;;;;;10102961;28;20032;-62
2022/10/20 04:36:31;;;;;;;20.10;8.65;;;14.50;99.90;;;;;;10103362;28;20040;-63
2022/10/20 04:41:22;;;;;;;21.30;9.32;;;14.30;99.90;;;;;;10102161;28;20094;-62
2022/10/20 04:46:12;;;;;;;21.00;8.75;;;14.30;99.90;;;;;;10102245;28;20036;-61
2022/10/20 04:51:06;;;;;;;16.48;9.15;;;14.40;99.90;;;;;;10102794;28;20510;-61
2022/10/20 04:56:00;;;;;;;20.02;10.73;;;14.40;99.90;;;;;;10102154;28;20124;-61
2022/10/20 05:00:51;;;;;;;13.15;6.85;;;14.40;99.90;;;;;;10102496;28;20020;-61
2022/10/20 05:05:42;;;;;;;17.55;8.05;;;14.40;99.90;;;;;;10097519;28;20073;-61
2022/10/20 05:10:33;;;;;;;16.42;8.85;;;14.40;99.90;;;;;;10100581;28;20610;-62
2022/10/20 05:15:23;;;;;;;21.45;9.57;;;14.20;99.90;;;;;;10106938;28;20044;-61
2022/10/20 05:20:14;;;;;;;17.75;8.38;;;14.10;99.90;;;;;;10095760;28;20033;-62
2022/10/20 05:25:05;;;;;;;18.23;8.32;;;14.10;99.90;;;;;;10098948;28;20035;-61
2022/10/20 05:29:55;;;;;;;17.45;10.10;;;14.20;99.90;;;;;;10100171;28;20452;-63
2022/10/20 05:34:46;;;;;;;15.88;8.32;;;14.20;99.90;;;;;;10090727;28;20087;-61
2022/10/20 05:39:37;;;;;;;18.13;9.07;;;14.30;99.90;;;;;;10076551;28;20031;-62
2022/10/20 05:44:28;;;;;;;20.35;9.32;;;14.40;99.90;;;;;;10093286;28;20453;-63
2022/10/20 05:49:18;;;;;;;18.58;9.30;;;14.40;99.90;;;;;;10096188;28;20052;-61
2022/10/20 05:54:10;;;;;;;18.10;8.10;;;14.50;99.90;;;;;;10093935;28;20130;-61
2022/10/20 05:59:01;;;;;;;16.35;7.28;;;14.30;99.90;;;;;;10098597;28;20444;-63
2022/10/20 06:03:55;;;;;;;16.02;7.75;;;14.20;99.90;;;;;;10099112;28;20032;-62
2022/10/20 06:08:47;;;;;;;12.60;7.37;;;14.30;99.90;;;;;;10092746;28;20031;-62
2022/10/20 06:13:38;;;;;;;11.77;7.25;;;14.30;99.90;;;;;;10100563;28;20037;-62
2022/10/20 06:18:29;;;;;;;16.38;8.52;;;14.20;99.90;;;;;;10097125;28;20084;-62
2022/10/20 06:23:20;;;;;;;20.00;8.65;;;14.40;99.90;;;;;;10098545;28;20083;-63
2022/10/20 06:28:11;;;;;;;17.50;7.68;;;14.40;99.90;;;;;;10097932;28;20557;-63
2022/10/20 06:33:01;;;;;;;16.95;8.30;;;14.50;99.90;;;;;;10098208;28;20040;-62
2022/10/20 06:37:52;;;;;;;14.52;8.43;;;14.60;99.90;;;;;;10098744;28;20036;-66
2022/10/20 06:42:42;;;;;;;15.18;7.68;;;14.60;99.90;;;;;;10057905;28;20082;-62
2022/10/20 06:47:33;;;;;;;18.08;8.43;;;14.50;99.90;;;;;;10091509;28;20136;-68
2022/10/20 06:52:24;;;;;;;15.68;8.23;;;14.50;99.90;;;;;;10088097;28;20452;-66
2022/10/20 06:57:14;;;;;;;14.13;7.57;;;14.40;99.90;;;;;;10090002;28;20040;-67
2022/10/20 07:06:58;;;;;;;15.40;8.57;;;14.50;99.90;;;;;;10025119;28;20081;-65
2022/10/20 07:11:52;;;;;;;19.17;8.27;;;14.50;99.90;;;;;;10033250;28;21072;-66
2022/10/20 07:16:43;;;;;;;21.60;11.57;;;14.50;99.90;;;;;;10033857;28;20042;-62
2022/10/20 07:21:35;;;;;;;18.38;8.38;;;14.30;99.90;;;;;;10032665;28;20028;-62
2022/10/20 07:26:28;;;;;;;14.18;8.10;;;14.20;99.90;;;;;;10039106;28;20084;-66
2022/10/20 07:31:28;;;;;;;18.98;9.82;;;14.30;99.90;;;;;;10026887;28;20030;-66
2022/10/20 07:36:24;;;;;;;22.77;9.02;;;14.30;99.90;;;;;;10022459;28;20051;-65
2022/10/20 07:41:15;;;;;;;18.17;9.07;;;14.40;99.90;;;;;;10046731;28;20476;-65
2022/10/20 07:46:07;;;;;;;17.10;9.60;;;14.40;99.90;;;;;;10033367;28;20084;-66
2022/10/20 07:51:16;;;;;;;19.63;9.27;;;14.50;99.90;;;;;;10025507;28;20444;-65
2022/10/20 07:56:07;;;;;;;16.33;8.63;;;14.60;99.90;;;;;;10040432;28;20041;-66
2022/10/20 08:00:57;;;;;;;18.27;9.02;;;14.90;99.90;;;;;;10031973;28;20017;-68
2022/10/20 08:05:48;;;;;;;18.92;9.20;;;15.00;99.90;;;;;;10044941;28;20073;-66
2022/10/20 08:10:39;;;;;;;17.20;9.35;;;15.10;99.90;;;;;;10034930;28;20058;-66
2022/10/20 08:15:29;;;;;;;19.25;8.85;;;15.20;99.90;;;;;;10036930;28;20106;-66
2022/10/20 08:20:20;;;;;;;18.75;8.55;;;15.40;99.90;;;;;;10046362;28;20392;-65
2022/10/20 08:25:20;;;;;;;15.25;8.25;;;15.50;99.90;;;;;;10042806;28;20040;-65
2022/10/20 08:30:11;;;;;;;11.63;7.50;;;15.70;99.90;;;;;;10044415;28;20064;-64
2022/10/20 08:35:02;;;;;;;20.15;8.10;;;16.00;99.90;;;;;;10042199;28;20068;-62
2022/10/20 08:39:53;;;;;;;17.98;8.63;;;16.10;99.90;;;;;;10044010;28;20487;-65
2022/10/20 08:44:46;;;;;;;13.95;7.50;;;15.90;99.90;;;;;;10043556;28;20145;-67
2022/10/20 08:49:36;;;;;;;15.15;7.60;;;15.90;99.90;;;;;;10039454;28;20426;-66
2022/10/20 08:54:27;;;;;;;12.68;6.45;;;15.90;99.90;;;;;;10046290;28;20052;-66
2022/10/20 08:59:27;;;;;;;10.35;6.45;;;16.00;99.90;;;;;;10039669;28;20037;-67
2022/10/20 09:04:38;;;;;;;11.20;6.68;;;15.90;99.90;;;;;;10040793;28;20061;-67
2022/10/20 09:09:30;;;;;;;9.35;6.47;;;15.90;99.90;;;;;;10039769;28;20037;-68
2022/10/20 09:14:21;;;;;;;11.55;5.97;;;15.90;99.90;;;;;;10044332;28;20018;-63
2022/10/20 09:19:19;;;;;;;10.02;6.68;;;15.90;99.90;;;;;;10035943;28;20034;-65
2022/10/20 09:24:10;;;;;;;13.75;7.20;;;16.00;99.90;;;;;;10031412;28;20109;-66
2022/10/20 09:29:12;;;;;;;14.50;7.05;;;15.80;99.90;;;;;;10031595;28;20101;-65
2022/10/20 09:34:27;;;;;;;11.23;6.10;;;15.70;99.90;;;;;;10030425;28;20492;-69
2022/10/20 09:39:25;;;;;;;8.70;5.50;;;15.90;99.90;;;;;;10033138;28;20095;-69
2022/10/20 09:44:23;;;;;;;12.35;5.65;;;15.90;99.90;;;;;;10043557;28;20412;-67
2022/10/20 09:49:29;;;;;;;9.90;6.10;;;15.90;99.90;;;;;;10037634;28;20025;-67
2022/10/20 09:54:21;;;;;;;;;;;16.10;99.90;;;;;;10040463;28;20430;-69
2022/10/20 09:59:24;;;;;;;10.60;5.55;;;16.00;99.90;;;;;;10036101;28;20439;-68
2022/10/20 10:04:29;;;;;;;11.18;6.13;;;16.00;99.90;;;;;;10031565;28;20145;-67
2022/10/20 10:09:36;;;;;;;9.40;5.90;;;16.10;99.90;;;;;;10031051;28;20076;-70
2022/10/20 10:14:28;;;;;;;8.43;5.63;;;16.10;99.90;;;;;;10007748;28;20551;-69
2022/10/20 10:19:25;;;;;;;10.40;6.85;;;16.30;99.90;;;;;;10035113;28;20036;-70
2022/10/20 10:24:34;;;;;;;13.82;7.07;;;16.40;99.90;;;;;;10024347;28;20029;-70
2022/10/20 10:29:31;;;;;;;9.63;7.05;;;16.50;99.90;;;;;;10036318;28;20119;-70
2022/10/20 10:34:28;;;;;;;15.55;8.38;;;16.70;99.90;;;;;;10034431;28;20021;-66
2022/10/20 10:39:19;;;;;;;12.85;7.82;;;17.10;99.90;;;;;;10030751;28;20565;-67
2022/10/20 10:44:23;;;;;;;14.23;8.40;;;17.30;99.90;;;;;;10049675;28;20075;-67
2022/10/20 10:49:32;;;;;;;9.40;5.97;;;17.50;99.90;;;;;;10052042;28;20061;-67
2022/10/20 10:54:32;;;;;;;14.40;6.72;;;17.60;99.90;;;;;;10047870;28;20038;-65
2022/10/20 10:59:27;;;;;;;11.18;6.63;;;18.00;99.90;;;;;;10050360;28;20030;-63
2022/10/20 11:04:36;;;;;;;12.25;6.85;;;18.40;99.90;;;;;;10048124;28;20049;-63
2022/10/20 11:09:47;;;;;;;15.77;8.93;;;18.60;99.90;;;;;;10048052;28;20034;-72
2022/10/20 11:14:41;;;;;;;10.23;6.53;;;18.60;99.90;;;;;;10040149;28;20319;-67
2022/10/20 11:19:44;;;;;;;10.07;7.25;;;18.70;99.90;;;;;;10048637;28;20033;-68
2022/10/20 11:24:44;;;;;;;12.43;6.63;;;18.70;99.90;;;;;;10049061;28;20025;-68
2022/10/20 11:29:47;;;;;;;12.88;6.85;;;18.70;99.90;;;;;;10049874;28;20083;-68
2022/10/20 11:34:49;;;;;;;11.80;6.75;;;18.70;99.90;;;;;;10046875;28;20509;-68
2022/10/20 11:39:47;;;;;;;13.73;7.28;;;18.70;99.90;;;;;;10025468;28;20017;-67
2022/10/20 11:44:43;;;;;;;10.70;6.25;;;18.60;99.90;;;;;;10042245;28;20014;-64
2022/10/20 11:49:37;;;;;;;17.38;7.45;;;18.60;99.90;;;;;;10048260;28;20025;-64
2022/10/20 11:54:56;;;;;;;12.52;7.22;;;18.60;99.90;;;;;;10056919;28;20036;-67
2022/10/20 12:00:11;;;;;;;11.65;8.15;;;18.60;99.90;;;;;;10053336;28;20033;-64
2022/10/20 12:05:39;;;;;;;11.88;6.55;;;18.70;99.90;;;;;;10048536;28;20041;-66
2022/10/20 12:10:57;;;;;;;14.00;6.90;;;18.60;99.90;;;;;;10034284;28;20483;-65
2022/10/20 12:15:50;;;;;;;12.85;7.13;;;18.40;99.90;;;;;;10052365;28;20045;-66
2022/10/20 12:20:52;;;;;;;15.07;7.38;;;18.20;99.90;;;;;;10053786;28;20025;-67
2022/10/20 12:25:43;;;;;;;13.25;7.05;;;18.20;99.90;;;;;;10051148;28;20022;-66
2022/10/20 12:30:37;;;;;;;10.32;6.57;;;18.20;99.90;;;;;;10054376;28;20025;-67
2022/10/20 12:35:29;;;;;;;12.18;7.10;;;18.40;99.90;;;;;;10058850;28;20029;-67
2022/10/20 12:40:27;;;;;;;10.57;7.28;;;18.60;99.90;;;;;;10059112;28;20059;-69
2022/10/20 12:45:17;;;;;;;15.63;7.15;;;18.60;99.90;;;;;;10056819;28;20113;-68
2022/10/20 12:50:34;;;;;;;14.20;6.43;;;18.70;99.90;;;;;;10054611;28;20447;-68
2022/10/20 12:55:34;;;;;;;11.23;6.65;;;18.60;99.90;;;;;;10052422;28;20033;-69
2022/10/20 13:00:25;;;;;;;13.15;6.80;;;18.70;99.90;;;;;;10049311;28;20029;-69
2022/10/20 13:05:18;;;;;;;14.52;6.50;;;18.60;99.90;;;;;;10051847;28;20041;-69
2022/10/20 13:10:35;;;;;;;10.85;6.07;;;18.50;99.90;;;;;;10053787;28;20025;-69
2022/10/20 13:15:48;;;;;;;12.07;7.57;;;18.40;99.90;;;;;;10053907;28;20056;-66
2022/10/20 13:21:00;;;;;;;10.85;6.00;;;18.20;99.90;;;;;;10052521;28;20048;-69
2022/10/20 13:25:54;;;;;;;14.55;7.43;;;18.10;99.90;;;;;;10053740;28;20047;-70
2022/10/20 13:31:11;;;;;;;12.98;7.00;;;18.20;99.90;;;;;;10053914;28;20496;-70
2022/10/20 13:36:17;;;;;;;12.45;6.13;;;18.30;99.90;;;;;;10051030;28;20488;-68
2022/10/20 13:41:20;;;;;;;10.90;6.22;;;18.20;99.90;;;;;;10052524;28;20025;-68
2022/10/20 13:46:36;;;;;;;14.18;6.63;;;18.30;99.90;;;;;;10052388;28;20037;-68
2022/10/20 13:51:29;;;;;;;;;;;18.10;99.90;;;;;;10049779;28;20032;-70
2022/10/20 13:56:32;;;;;;;11.50;6.60;;;18.00;99.90;;;;;;10052222;28;20383;-68
2022/10/20 14:01:23;;;;;;;12.38;7.32;;;18.10;99.90;;;;;;10054997;28;20423;-68
2022/10/20 14:06:26;;;;;;;10.32;5.97;;;18.00;99.90;;;;;;10053339;28;20045;-69
2022/10/20 14:11:17;;;;;;;12.88;7.13;;;18.20;99.90;;;;;;10054467;28;20037;-68
2022/10/20 14:16:18;;;;;;;12.13;7.07;;;18.00;99.90;;;;;;10053983;28;20041;-68
2022/10/20 14:21:17;;;;;;;13.30;6.32;;;17.90;99.90;;;;;;10051278;28;20100;-70
2022/10/20 14:26:18;;;;;;;10.95;7.28;;;18.00;99.90;;;;;;10050618;28;20479;-70
2022/10/20 14:31:13;;;;;;;11.73;6.68;;;18.00;99.90;;;;;;10050662;28;20017;-68
2022/10/20 14:36:05;;;;;;;11.10;6.85;;;17.90;99.90;;;;;;10050594;28;20481;-67
2022/10/20 14:40:57;;;;;;;14.07;7.88;;;17.80;99.90;;;;;;10050104;28;20652;-67
2022/10/20 14:45:54;;;;;;;12.80;7.03;;;17.80;99.90;;;;;;10050896;28;20089;-67
2022/10/20 14:50:44;;;;;;;14.55;7.50;;;17.80;99.90;;;;;;10049808;28;20109;-69
2022/10/20 14:55:38;;;;;;;10.48;7.72;;;17.70;99.90;;;;;;10049192;28;20417;-68
2022/10/20 15:00:35;;;;;;;9.10;6.07;;;17.60;99.90;;;;;;10051002;28;20444;-67
2022/10/20 15:05:25;;;;;;;12.57;6.38;;;17.50;99.90;;;;;;10050057;28;20041;-71
2022/10/20 15:10:19;;;;;;;11.95;7.50;;;17.40;99.90;;;;;;10049717;28;20415;-67
2022/10/20 15:15:10;;;;;;;11.13;7.75;;;17.40;99.90;;;;;;10050706;28;20041;-68
2022/10/20 15:20:29;;;;;;;9.43;6.18;;;17.30;99.90;;;;;;10050002;28;20492;-67
2022/10/20 15:25:19;;;;;;;11.55;6.72;;;17.30;99.90;;;;;;10048564;28;20510;-67
2022/10/20 15:30:18;;;;;;;14.63;6.63;;;17.30;99.90;;;;;;10048149;28;20033;-70
2022/10/20 15:35:18;;;;;;;9.50;6.72;;;17.20;99.90;;;;;;10053708;28;20116;-69
2022/10/20 15:40:09;;;;;;;8.82;6.07;;;17.20;99.90;;;;;;10049265;28;20424;-69
2022/10/20 15:44:59;;;;;;;14.30;7.03;;;17.00;99.90;;;;;;10053112;28;20029;-70
2022/10/20 15:49:50;;;;;;;11.65;7.10;;;17.00;99.90;;;;;;10050495;28;20053;-68
2022/10/20 15:54:41;;;;;;;10.13;7.30;;;17.00;99.90;;;;;;10052112;28;20049;-68
2022/10/20 15:59:31;;;;;;;16.85;8.27;;;16.90;99.90;;;;;;10053174;28;20036;-69
2022/10/20 16:04:27;;;;;;;16.40;9.27;;;16.90;99.90;;;;;;10049036;28;20061;-69
2022/10/20 16:09:18;;;;;;;16.60;8.15;;;16.90;99.90;;;;;;10051937;28;20117;-70
2022/10/20 16:14:09;;;;;;;15.30;9.70;;;16.90;99.90;;;;;;10052335;28;20108;-69
2022/10/20 16:19:00;;;;;;;15.43;8.70;;;16.90;99.90;;;;;;10050632;28;20050;-69
2022/10/20 16:23:50;;;;;;;13.00;7.53;;;16.90;99.90;;;;;;10050393;28;20107;-68
2022/10/20 16:28:41;;;;;;;14.77;7.80;;;16.90;99.90;;;;;;10047861;28;20044;-73
2022/10/20 16:33:33;;;;;;;13.23;7.95;;;16.90;99.90;;;;;;10049025;28;20021;-65
2022/10/20 16:38:23;;;;;;;15.90;7.53;;;16.90;99.90;;;;;;10049989;28;20045;-64
2022/10/20 16:43:14;;;;;;;15.77;8.48;;;16.70;99.90;;;;;;10053954;28;20036;-63
2022/10/20 16:48:05;;;;;;;12.55;7.43;;;16.70;99.90;;;;;;10057637;28;20033;-62
2022/10/20 16:52:55;;;;;;;17.15;8.63;;;16.70;99.90;;;;;;10057129;28;20030;-68
2022/10/20 16:57:46;;;;;;;12.25;8.07;;;16.80;99.90;;;;;;10057846;28;20045;-67
2022/10/20 17:02:37;;;;;;;13.25;7.20;;;16.70;99.90;;;;;;10060603;28;20122;-62
2022/10/20 17:07:27;;;;;;;14.02;8.30;;;16.70;99.90;;;;;;10049000;28;20095;-61
2022/10/20 17:12:18;;;;;;;19.33;9.18;;;16.70;99.90;;;;;;10062834;28;20398;-62
2022/10/20 17:17:09;;;;;;;15.65;8.43;;;16.70;99.90;;;;;;10058319;28;20049;-62
2022/10/20 17:21:59;;;;;;;12.68;7.00;;;16.70;99.90;;;;;;10056062;28;20040;-63
2022/10/20 17:26:50;;;;;;;17.40;8.80;;;16.60;99.90;;;;;;10056422;28;20040;-61
2022/10/20 17:31:41;;;;;;;16.00;8.13;;;16.60;99.90;;;;;;10055911;28;20034;-64
2022/10/20 17:36:32;;;;;;;13.35;7.15;;;16.70;99.90;;;;;;10059991;28;20047;-65
2022/10/20 17:41:23;;;;;;;12.05;7.70;;;16.70;99.90;;;;;;10054614;28;20107;-63
2022/10/20 17:46:16;;;;;;;14.80;7.80;;;16.80;99.90;;;;;;10055613;28;20491;-63
2022/10/20 17:51:14;;;;;;;15.90;7.97;;;16.60;99.90;;;;;;10054779;28;20088;-69
2022/10/20 17:56:08;;;;;;;18.75;9.95;;;16.70;99.90;;;;;;10055393;28;20099;-62
2022/10/20 18:01:13;;;;;;;21.63;10.82;;;16.60;99.90;;;;;;10054406;28;20052;-64
2022/10/20 18:06:24;;;;;;;27.05;15.75;;;16.70;99.90;;;;;;10051404;28;20516;-68
2022/10/20 18:11:17;;;;;;;16.20;8.75;;;16.80;99.90;;;;;;10053392;28;20033;-65
2022/10/20 18:16:10;;;;;;;17.00;8.93;;;16.70;99.90;;;;;;10053325;28;20125;-61
2022/10/20 18:21:01;;;;;;;17.73;10.60;;;16.70;99.90;;;;;;10053257;28;20430;-60
2022/10/20 18:25:53;;;;;;;18.58;9.18;;;16.70;99.90;;;;;;10055989;28;20022;-64
2022/10/20 18:30:44;;;;;;;15.15;9.75;;;16.70;99.90;;;;;;10051874;28;20143;-63
2022/10/20 18:35:38;;;;;;;15.98;9.20;;;16.80;99.90;;;;;;10042700;28;20213;-63
2022/10/20 18:40:31;;;;;;;18.70;10.43;;;16.80;99.90;;;;;;10046256;28;20050;-63
2022/10/20 18:45:21;;;;;;;17.73;10.00;;;16.70;99.90;;;;;;10050655;28;20468;-62
2022/10/20 18:50:12;;;;;;;21.25;11.35;;;16.60;99.90;;;;;;10039229;28;20079;-66
2022/10/20 18:55:03;;;;;;;19.00;11.18;;;16.70;99.90;;;;;;10048737;28;20093;-66
2022/10/20 18:59:54;;;;;;;18.27;10.15;;;16.80;99.90;;;;;;10049305;28;20021;-70
2022/10/20 19:04:44;;;;;;;18.15;11.15;;;16.70;99.90;;;;;;10046288;28;20487;-69
2022/10/20 19:09:35;;;;;;;17.13;10.52;;;16.70;99.90;;;;;;10047855;28;20365;-65
2022/10/20 19:14:26;;;;;;;17.38;11.45;;;16.70;99.90;;;;;;10050263;28;20128;-70
2022/10/20 19:19:17;;;;;;;18.10;10.77;;;16.70;99.90;;;;;;10055814;28;20052;-74
2022/10/20 19:24:16;;;;;;;17.10;9.90;;;16.80;99.90;;;;;;10052250;28;20272;-64
2022/10/20 19:29:10;;;;;;;16.13;10.07;;;16.80;99.90;;;;;;10051466;28;20097;-66
2022/10/20 19:34:05;;;;;;;20.83;13.25;;;16.80;99.90;;;;;;10051761;28;20702;-65
2022/10/20 19:38:56;;;;;;;22.93;10.57;;;16.80;99.90;;;;;;10050108;28;20036;-66
2022/10/20 19:43:48;;;;;;;17.58;10.32;;;16.70;99.90;;;;;;10052189;28;20395;-66
2022/10/20 19:48:38;;;;;;;20.23;10.68;;;16.70;99.90;;;;;;10052440;28;20018;-67
2022/10/20 19:53:29;;;;;;;17.15;10.38;;;16.80;99.90;;;;;;10045132;28;20060;-67
2022/10/20 19:58:21;;;;;;;22.30;10.93;;;16.90;99.90;;;;;;10039231;28;20121;-63
2022/10/20 20:03:12;;;;;;;17.83;11.00;;;16.80;99.90;;;;;;10051915;28;20065;-63
2022/10/20 20:08:03;;;;;;;15.73;8.77;;;16.80;99.90;;;;;;10050074;28;20306;-63
2022/10/20 20:12:54;;;;;;;15.15;8.52;;;16.60;99.90;;;;;;10064492;28;20312;-64
2022/10/20 20:17:44;;;;;;;17.75;9.20;;;16.60;99.90;;;;;;10056796;28;20025;-62
2022/10/20 20:22:35;;;;;;;16.52;8.82;;;16.50;99.90;;;;;;10057913;28;20025;-64
2022/10/20 20:27:25;;;;;;;14.95;8.85;;;16.40;99.90;;;;;;10053846;28;20026;-63
2022/10/20 20:32:16;;;;;;;14.05;8.98;;;16.50;99.90;;;;;;10043828;28;20037;-64
2022/10/20 20:37:07;;;;;;;20.25;9.85;;;16.50;99.90;;;;;;10052139;28;20037;-63
2022/10/20 20:41:58;;;;;;;15.70;8.90;;;16.60;99.90;;;;;;10048525;28;20515;-62
2022/10/20 20:46:48;;;;;;;12.77;7.35;;;16.50;99.90;;;;;;10052486;28;20439;-63
2022/10/20 20:51:39;;;;;;;14.32;7.13;;;16.50;99.90;;;;;;10058042;28;20060;-65
2022/10/20 20:56:30;;;;;;;9.73;6.68;;;16.40;99.90;;;;;;10053607;28;20041;-62
2022/10/20 21:01:23;;;;;;;14.18;7.80;;;16.60;99.90;;;;;;10053138;28;20088;-62
2022/10/20 21:06:15;;;;;;;10.80;6.85;;;16.40;99.90;;;;;;10053298;28;20056;-63
2022/10/20 21:11:11;;;;;;;11.73;6.38;;;16.50;99.90;;;;;;10056581;28;20076;-62
2022/10/20 21:16:14;;;;;;;14.38;7.72;;;16.40;99.90;;;;;;10055359;28;20496;-64
2022/10/20 21:21:13;;;;;;;14.00;7.03;;;16.40;99.90;;;;;;10054686;28;20030;-63
2022/10/20 21:26:05;;;;;;;10.68;7.15;;;16.40;99.90;;;;;;10055200;28;20057;-64
2022/10/20 21:30:56;;;;;;;11.02;7.50;;;16.40;99.90;;;;;;10057569;28;20470;-63
2022/10/20 21:35:47;;;;;;;12.13;6.95;;;16.30;99.90;;;;;;10060496;28;20404;-64
2022/10/20 21:40:37;;;;;;;9.90;6.85;;;16.30;99.90;;;;;;10059806;28;20033;-62
2022/10/20 21:45:28;;;;;;;14.75;7.97;;;16.30;99.90;;;;;;10055424;28;20120;-63
2022/10/20 21:50:18;;;;;;;11.48;6.28;;;16.30;99.90;;;;;;10054769;28;20028;-62
2022/10/20 21:55:09;;;;;;;13.32;7.35;;;16.40;99.90;;;;;;10053998;28;20029;-63
2022/10/20 21:59:59;;;;;;;12.40;6.93;;;16.40;99.90;;;;;;10053609;28;20026;-65
2022/10/20 22:04:50;;;;;;;12.52;5.97;;;16.40;99.90;;;;;;10051385;28;20053;-63
2022/10/20 22:09:41;;;;;;;14.48;7.45;;;16.40;99.90;;;;;;10053537;28;20048;-63
2022/10/20 22:14:31;;;;;;;15.00;6.15;;;16.30;99.90;;;;;;10053656;28;20028;-62
2022/10/20 22:19:23;;;;;;;11.20;6.75;;;16.30;99.90;;;;;;10052720;28;20037;-63
2022/10/20 22:24:16;;;;;;;12.02;6.82;;;16.30;99.90;;;;;;10052584;28;20080;-63
2022/10/20 22:29:08;;;;;;;15.30;8.93;;;16.30;99.90;;;;;;10053479;28;20147;-63
2022/10/20 22:33:59;;;;;;;12.40;7.85;;;16.00;99.90;;;;;;10052265;28;20029;-64
2022/10/20 22:38:50;;;;;;;15.23;10.20;;;16.00;99.90;;;;;;10052012;28;20136;-64
2022/10/20 22:43:40;;;;;;;20.77;9.48;;;16.20;99.90;;;;;;10054591;28;20013;-64
2022/10/20 22:48:31;;;;;;;17.25;9.55;;;16.40;99.90;;;;;;10054615;28;20037;-64
2022/10/20 22:53:23;;;;;;;16.52;8.73;;;16.50;99.90;;;;;;10052575;28;20055;-64
2022/10/20 22:58:14;;;;;;;14.30;8.50;;;16.60;99.90;;;;;;10053648;28;20320;-65
2022/10/20 23:03:04;;;;;;;26.42;14.07;;;16.70;99.90;;;;;;10056554;28;20578;-64
2022/10/20 23:07:55;;;;;;;12.80;7.70;;;16.70;99.90;;;;;;10055311;28;20399;-64
2022/10/20 23:12:46;;;;;;;12.40;6.10;;;16.70;99.90;;;;;;10059995;28;20017;-64
2022/10/20 23:17:36;;;;;;;10.10;5.72;;;16.70;99.90;;;;;;10052193;28;20045;-64
2022/10/20 23:22:27;;;;;;;11.88;5.90;;;16.80;99.90;;;;;;10051435;28;20026;-65
2022/10/20 23:27:17;;;;;;;7.63;5.43;;;16.70;99.90;;;;;;10053017;28;20472;-63
2022/10/20 23:32:08;;;;;;;6.35;3.50;;;16.70;99.90;;;;;;10052395;28;20021;-64
2022/10/20 23:36:59;;;;;;;6.90;4.40;;;16.70;99.90;;;;;;10051528;28;20045;-65
2022/10/20 23:41:49;;;;;;;7.07;3.90;;;16.70;99.90;;;;;;10051998;28;20067;-64
2022/10/20 23:46:40;;;;;;;9.20;5.18;;;16.70;99.90;;;;;;10057760;28;20021;-64
2022/10/20 23:51:31;;;;;;;11.65;5.55;;;16.70;99.90;;;;;;10058956;28;20025;-64
2022/10/20 23:56:22;;;;;;;8.98;4.45;;;16.70;99.90;;;;;;10056856;28;20045;-64
